createdAt,value
2019-05-10T00:00:57.955Z,1.60
2019-05-10T00:03:19.543Z,1.60
2019-05-10T00:05:41.018Z,1.87
2019-05-10T00:08:02.451Z,1.70
2019-05-10T00:10:05.493Z,1.50
2019-05-10T00:12:21.316Z,1.92
2019-05-10T00:14:37.388Z,1.87
2019-05-10T00:16:41.038Z,1.65
2019-05-10T00:18:44.623Z,1.70
2019-05-10T00:20:48.183Z,1.72
2019-05-10T00:22:51.850Z,1.57
2019-05-10T00:25:03.840Z,1.98
2019-05-10T00:27:00.722Z,1.90
2019-05-10T00:29:04.375Z,1.80
2019-05-10T00:31:07.950Z,1.95
2019-05-10T00:33:11.525Z,2.00
2019-05-10T00:35:15.088Z,2.10
2019-05-10T00:37:19.105Z,2.37
2019-05-10T00:39:22.804Z,2.10
2019-05-10T00:41:26.417Z,2.10
2019-05-10T00:43:30.701Z,2.70
2019-05-10T00:45:34.271Z,2.37
2019-05-10T00:47:38.419Z,2.12
2019-05-10T00:49:42.592Z,2.80
2019-05-10T00:51:46.755Z,2.98
2019-05-10T00:53:50.927Z,3.12
2019-05-10T00:55:55.084Z,3.22
2019-05-10T00:57:59.246Z,3.75
2019-05-10T01:00:03.829Z,4.53
2019-05-10T01:02:08.049Z,4.28
2019-05-10T01:04:12.219Z,4.17
2019-05-10T01:06:16.463Z,4.95
2019-05-10T01:08:22.101Z,5.58
2019-05-10T01:10:26.265Z,5.15
2019-05-10T01:12:30.435Z,6.00
2019-05-10T01:14:34.598Z,6.05
2019-05-10T01:16:38.837Z,6.80
2019-05-10T01:18:43.001Z,6.65
2019-05-10T01:20:47.164Z,6.37
2019-05-10T01:22:51.351Z,6.55
2019-05-10T01:24:55.502Z,7.00
2019-05-10T01:26:59.683Z,8.05
2019-05-10T01:29:03.910Z,7.45
2019-05-10T01:31:08.158Z,8.13
2019-05-10T01:33:12.417Z,9.10
2019-05-10T01:35:16.581Z,9.28
2019-05-10T01:37:20.738Z,8.75
2019-05-10T01:39:24.910Z,9.23
2019-05-10T01:41:29.087Z,9.13
2019-05-10T01:43:33.253Z,8.83
2019-05-10T01:45:37.415Z,9.93
2019-05-10T01:47:41.579Z,9.70
2019-05-10T01:49:45.755Z,9.35
2019-05-10T01:51:49.919Z,9.75
2019-05-10T01:53:54.099Z,10.25
2019-05-10T01:55:58.288Z,9.93
2019-05-10T01:58:02.548Z,10.55
2019-05-10T02:00:08.791Z,11.53
2019-05-10T02:02:12.965Z,10.98
2019-05-10T02:04:17.973Z,11.12
2019-05-10T02:06:22.375Z,10.80
2019-05-10T02:08:26.591Z,10.75
2019-05-10T02:10:30.772Z,10.82
2019-05-10T02:12:34.934Z,11.68
2019-05-10T02:14:39.118Z,11.03
2019-05-10T02:16:43.469Z,10.70
2019-05-10T02:18:47.708Z,12.13
2019-05-10T02:20:51.879Z,11.78
2019-05-10T02:22:56.035Z,12.43
2019-05-10T02:25:00.230Z,12.78
2019-05-10T02:27:04.484Z,12.30
2019-05-10T02:29:08.660Z,13.38
2019-05-10T02:31:12.917Z,12.75
2019-05-10T02:33:17.080Z,13.70
2019-05-10T02:35:21.252Z,13.00
2019-05-10T02:37:25.506Z,13.43
2019-05-10T02:39:29.664Z,14.20
2019-05-10T02:41:34.155Z,14.63
2019-05-10T02:43:38.419Z,15.40
2019-05-10T02:45:42.612Z,15.58
2019-05-10T02:47:46.779Z,15.40
2019-05-10T02:49:51.015Z,15.83
2019-05-10T02:51:55.283Z,16.37
2019-05-10T02:54:00.392Z,16.75
2019-05-10T02:56:04.965Z,15.85
2019-05-10T02:58:09.559Z,16.40
2019-05-10T03:00:15.944Z,17.20
2019-05-10T03:02:20.622Z,15.98
2019-05-10T03:04:26.325Z,17.42
2019-05-10T03:06:35.261Z,16.10
2019-05-10T03:08:50.812Z,17.15
2019-05-10T03:10:58.829Z,16.25
2019-05-10T03:13:04.410Z,16.97
2019-05-10T03:15:10.814Z,18.20
2019-05-10T03:17:16.193Z,18.02
2019-05-10T03:19:21.660Z,18.35
2019-05-10T03:21:28.002Z,18.42
2019-05-10T03:23:32.156Z,16.73
2019-05-10T03:25:36.332Z,18.73
2019-05-10T03:27:40.767Z,18.20
2019-05-10T03:29:45.271Z,21.27
2019-05-10T03:31:49.653Z,19.95
2019-05-10T03:33:57.132Z,20.35
2019-05-10T03:35:59.693Z,20.27
2019-05-10T03:38:03.846Z,19.85
2019-05-10T03:40:09.033Z,21.07
2019-05-10T03:42:13.314Z,20.32
2019-05-10T03:44:17.456Z,20.90
2019-05-10T03:46:21.633Z,20.25
2019-05-10T03:48:25.821Z,21.25
2019-05-10T03:50:30.014Z,21.15
2019-05-10T03:52:35.414Z,21.33
2019-05-10T03:54:39.582Z,21.50
2019-05-10T03:56:43.745Z,20.62
2019-05-10T03:58:48.071Z,20.45
2019-05-10T04:00:52.218Z,20.92
2019-05-10T04:02:56.408Z,20.92
2019-05-10T04:05:00.613Z,20.37
2019-05-10T04:07:04.791Z,22.20
2019-05-10T04:09:09.038Z,21.75
2019-05-10T04:11:13.204Z,21.73
2019-05-10T04:13:17.375Z,21.48
2019-05-10T04:15:21.515Z,23.57
2019-05-10T04:17:25.702Z,23.35
2019-05-10T04:19:29.868Z,25.90
2019-05-10T04:21:34.015Z,28.05
2019-05-10T04:23:38.192Z,27.02
2019-05-10T04:25:42.354Z,26.80
2019-05-10T04:27:46.535Z,28.55
2019-05-10T04:29:50.721Z,28.30
2019-05-10T04:31:54.885Z,34.38
2019-05-10T04:33:59.087Z,31.25
2019-05-10T04:36:03.287Z,31.12
2019-05-10T04:38:07.455Z,32.03
2019-05-10T04:40:11.863Z,32.75
2019-05-10T04:42:16.026Z,33.70
2019-05-10T04:44:20.185Z,32.35
2019-05-10T04:46:24.453Z,31.48
2019-05-10T04:48:28.597Z,31.87
2019-05-10T04:50:32.770Z,32.55
2019-05-10T04:52:36.930Z,33.33
2019-05-10T04:54:41.178Z,32.03
2019-05-10T04:56:45.354Z,31.50
2019-05-10T04:58:49.502Z,29.37
2019-05-10T05:00:53.659Z,29.30
2019-05-10T05:02:57.821Z,29.02
2019-05-10T05:05:02.107Z,28.45
2019-05-10T05:07:06.271Z,28.40
2019-05-10T05:09:10.537Z,27.93
2019-05-10T05:11:14.781Z,26.42
2019-05-10T05:13:18.945Z,27.42
2019-05-10T05:15:23.113Z,26.75
2019-05-10T05:17:27.639Z,25.60
2019-05-10T05:19:31.798Z,25.30
2019-05-10T05:21:35.944Z,25.12
2019-05-10T05:23:40.137Z,24.35
2019-05-10T05:25:44.305Z,27.32
2019-05-10T05:27:48.547Z,24.60
2019-05-10T05:29:52.745Z,22.52
2019-05-10T05:32:00.954Z,22.73
2019-05-10T05:34:04.774Z,21.17
2019-05-10T05:36:08.675Z,20.27
2019-05-10T05:38:12.838Z,20.80
2019-05-10T05:40:17.519Z,20.02
2019-05-10T05:42:22.399Z,18.82
2019-05-10T05:44:27.874Z,18.87
2019-05-10T05:46:32.279Z,18.50
2019-05-10T05:48:40.432Z,18.05
2019-05-10T05:50:42.325Z,18.20
2019-05-10T05:52:46.496Z,18.12
2019-05-10T05:54:52.959Z,17.90
2019-05-10T05:56:56.716Z,18.52
2019-05-10T05:59:00.880Z,16.93
2019-05-10T06:01:05.113Z,17.77
2019-05-10T06:03:09.353Z,17.32
2019-05-10T06:05:24.532Z,16.93
2019-05-10T06:07:19.741Z,13.32
2019-05-10T06:09:24.068Z,13.20
2019-05-10T06:11:29.886Z,13.83
2019-05-10T06:13:34.247Z,13.35
2019-05-10T06:15:38.459Z,13.48
2019-05-10T06:17:42.685Z,13.10
2019-05-10T06:19:46.887Z,14.78
2019-05-10T06:21:51.087Z,13.95
2019-05-10T06:23:55.245Z,13.60
2019-05-10T06:25:58.969Z,14.78
2019-05-10T06:28:03.205Z,13.95
2019-05-10T06:30:07.988Z,12.63
2019-05-10T06:32:12.201Z,11.65
2019-05-10T06:34:16.364Z,13.20
2019-05-10T06:36:20.522Z,12.40
2019-05-10T06:38:24.695Z,11.83
2019-05-10T06:40:34.792Z,11.20
2019-05-10T06:42:36.166Z,11.15
2019-05-10T06:44:40.509Z,11.57
2019-05-10T06:46:44.672Z,10.88
2019-05-10T06:48:48.847Z,10.75
2019-05-10T06:50:53.003Z,10.38
2019-05-10T06:53:00.782Z,10.20
2019-05-10T06:55:04.045Z,11.50
2019-05-10T06:57:11.161Z,10.93
2019-05-10T06:59:19.425Z,11.45
2019-05-10T07:01:20.190Z,11.38
2019-05-10T07:03:24.546Z,11.00
2019-05-10T07:05:28.803Z,10.98
2019-05-10T07:07:43.750Z,10.72
2019-05-10T07:10:01.433Z,10.53
2019-05-10T07:11:44.845Z,11.43
2019-05-10T07:13:52.843Z,11.00
2019-05-10T07:15:54.921Z,10.32
2019-05-10T07:17:59.168Z,10.38
2019-05-10T07:20:03.645Z,9.93
2019-05-10T07:22:07.831Z,10.65
2019-05-10T07:24:11.967Z,10.70
2019-05-10T07:26:17.363Z,10.43
2019-05-10T07:28:22.324Z,10.78
2019-05-10T07:30:32.873Z,11.28
2019-05-10T07:32:37.091Z,10.88
2019-05-10T07:34:41.334Z,11.08
2019-05-10T07:36:45.588Z,10.65
2019-05-10T07:38:49.760Z,11.73
2019-05-10T07:40:53.931Z,10.65
2019-05-10T07:42:58.117Z,10.80
2019-05-10T07:45:02.550Z,11.68
2019-05-10T07:47:06.790Z,11.80
2019-05-10T07:49:10.966Z,11.83
2019-05-10T07:51:15.121Z,11.55
2019-05-10T07:53:23.006Z,11.53
2019-05-10T07:55:28.667Z,12.13
2019-05-10T07:57:31.280Z,12.07
2019-05-10T07:59:48.663Z,12.40
2019-05-10T08:01:41.431Z,12.65
2019-05-10T08:03:51.810Z,13.75
2019-05-10T08:05:57.019Z,13.30
2019-05-10T08:07:58.818Z,13.13
2019-05-10T08:10:04.859Z,12.85
2019-05-10T08:12:12.614Z,13.22
2019-05-10T08:14:15.221Z,13.35
2019-05-10T08:16:22.704Z,13.20
2019-05-10T08:18:25.587Z,14.18
2019-05-10T08:20:45.354Z,13.08
2019-05-10T08:22:41.409Z,13.53
2019-05-10T08:24:44.590Z,13.13
2019-05-10T08:26:47.554Z,13.40
2019-05-10T08:28:52.554Z,13.60
2019-05-10T08:30:58.817Z,13.48
2019-05-10T08:33:09.495Z,13.48
2019-05-10T08:35:16.460Z,13.03
2019-05-10T08:37:19.486Z,13.68
2019-05-10T08:39:22.358Z,14.23
2019-05-10T08:41:26.664Z,13.55
2019-05-10T08:43:38.941Z,13.08
2019-05-10T08:45:38.763Z,14.33
2019-05-10T08:47:42.857Z,14.10
2019-05-10T08:50:06.461Z,14.93
2019-05-10T08:51:53.190Z,15.35
2019-05-10T08:53:58.310Z,15.45
2019-05-10T08:56:07.728Z,14.15
2019-05-10T08:58:08.729Z,14.85
2019-05-10T09:00:13.329Z,14.90
2019-05-10T09:02:23.062Z,14.75
2019-05-10T09:04:23.418Z,14.65
2019-05-10T09:06:27.591Z,14.47
2019-05-10T09:08:34.576Z,15.18
2019-05-10T09:10:37.756Z,14.30
2019-05-10T09:12:51.068Z,14.83
2019-05-10T09:14:48.816Z,13.88
2019-05-10T09:17:00.902Z,14.23
2019-05-10T09:18:59.273Z,12.95
2019-05-10T09:21:09.260Z,12.80
2019-05-10T09:23:15.355Z,12.23
2019-05-10T09:25:15.345Z,12.25
2019-05-10T09:27:19.620Z,11.33
2019-05-10T09:29:27.325Z,10.53
2019-05-10T09:31:29.740Z,10.08
2019-05-10T09:33:33.920Z,9.33
2019-05-10T09:35:38.798Z,9.50
2019-05-10T09:37:47.659Z,9.85
2019-05-10T09:39:55.467Z,8.50
2019-05-10T09:41:55.829Z,7.50
2019-05-10T09:44:02.844Z,7.28
2019-05-10T09:46:06.390Z,6.85
2019-05-10T09:48:12.119Z,6.70
2019-05-10T09:50:16.816Z,5.80
2019-05-10T09:52:21.039Z,5.42
2019-05-10T09:54:31.757Z,5.22
2019-05-10T09:56:32.908Z,5.92
2019-05-10T09:58:38.691Z,6.35
2019-05-10T10:00:42.900Z,6.20
2019-05-10T10:02:55.898Z,5.62
2019-05-10T10:04:53.134Z,5.58
2019-05-10T10:06:57.942Z,5.05
2019-05-10T10:09:02.982Z,4.42
2019-05-10T10:11:14.980Z,4.15
2019-05-10T10:13:14.009Z,4.72
2019-05-10T10:15:25.286Z,4.08
2019-05-10T10:17:24.369Z,3.62
2019-05-10T10:19:28.553Z,3.60
2019-05-10T10:21:35.522Z,4.28
2019-05-10T10:23:38.613Z,4.00
2019-05-10T10:25:42.797Z,3.90
2019-05-10T10:27:48.018Z,4.05
2019-05-10T10:29:52.506Z,3.10
2019-05-10T10:31:58.997Z,3.37
2019-05-10T10:34:03.300Z,3.10
2019-05-10T10:36:10.477Z,2.87
2019-05-10T10:38:13.541Z,2.60
2019-05-10T10:40:18.390Z,2.70
2019-05-10T10:42:22.621Z,2.80
2019-05-10T10:44:27.150Z,2.33
2019-05-10T10:46:34.415Z,2.40
2019-05-10T10:48:37.451Z,2.22
2019-05-10T10:50:49.839Z,2.37
2019-05-10T10:52:47.587Z,2.30
2019-05-10T10:54:51.764Z,2.45
2019-05-10T10:56:59.282Z,2.30
2019-05-10T10:59:01.819Z,2.50
2019-05-10T11:01:10.892Z,2.50
2019-05-10T11:03:11.879Z,2.42
2019-05-10T11:05:16.161Z,2.50
2019-05-10T11:07:20.311Z,2.60
2019-05-10T11:09:24.891Z,2.70
2019-05-10T11:11:37.867Z,2.80
2019-05-10T11:13:43.996Z,2.58
2019-05-10T11:15:41.996Z,2.30
2019-05-10T11:17:46.465Z,2.60
2019-05-10T11:19:50.651Z,2.45
2019-05-10T11:21:54.806Z,2.80
2019-05-10T11:24:01.264Z,2.50
2019-05-10T11:26:04.893Z,2.70
2019-05-10T11:28:09.887Z,2.70
2019-05-10T11:30:14.929Z,2.40
2019-05-10T11:32:21.157Z,2.45
2019-05-10T11:34:29.390Z,2.67
2019-05-10T11:36:31.282Z,3.33
2019-05-10T11:38:35.617Z,4.03
2019-05-10T11:40:41.965Z,3.10
2019-05-10T11:42:47.456Z,2.37
2019-05-10T11:44:54.524Z,2.62
2019-05-10T11:46:56.368Z,2.65
2019-05-10T11:49:01.739Z,2.42
2019-05-10T11:51:05.591Z,2.60
2019-05-10T11:53:13.590Z,12.47
2019-05-10T11:55:16.228Z,3.45
2019-05-10T11:57:21.968Z,3.17
2019-05-10T11:59:27.276Z,3.35
2019-05-10T12:01:30.445Z,3.10
2019-05-10T12:03:34.030Z,3.42
2019-05-10T12:05:37.690Z,2.92
2019-05-10T12:07:45.619Z,3.27
2019-05-10T12:09:55.724Z,2.95
2019-05-10T12:11:53.074Z,2.90
2019-05-10T12:13:57.688Z,2.95
2019-05-10T12:16:01.460Z,2.95
2019-05-10T12:18:05.316Z,3.05
2019-05-10T12:20:12.562Z,3.02
2019-05-10T12:22:15.967Z,2.65
2019-05-10T12:24:33.977Z,2.62
2019-05-10T12:28:35.380Z,2.40
2019-05-10T12:30:37.269Z,2.15
2019-05-10T12:32:55.100Z,2.05
2019-05-10T12:34:51.966Z,1.87
2019-05-10T12:36:52.070Z,2.08
2019-05-10T12:38:56.695Z,2.02
2019-05-10T12:41:01.424Z,2.30
2019-05-10T12:43:06.129Z,2.35
2019-05-10T12:45:10.034Z,2.75
2019-05-10T12:47:13.596Z,2.65
2019-05-10T12:49:17.254Z,2.42
2019-05-10T12:51:21.200Z,2.30
2019-05-10T12:53:25.020Z,2.22
2019-05-10T12:55:28.682Z,2.30
2019-05-10T12:57:32.317Z,2.33
2019-05-10T12:59:36.586Z,2.47
2019-05-10T13:01:40.435Z,2.20
2019-05-10T13:03:44.008Z,2.40
2019-05-10T13:05:52.402Z,2.35
2019-05-10T13:07:53.077Z,2.50
2019-05-10T13:10:03.658Z,2.60
2019-05-10T13:12:03.878Z,2.25
2019-05-10T13:14:09.559Z,1.87
2019-05-10T13:16:12.879Z,2.00
2019-05-10T13:18:16.476Z,1.72
2019-05-10T13:20:20.022Z,2.00
2019-05-10T13:22:23.623Z,2.15
2019-05-10T13:24:27.280Z,2.12
2019-05-10T13:26:30.949Z,2.30
2019-05-10T13:28:34.496Z,2.17
2019-05-10T13:30:38.159Z,2.10
2019-05-10T13:32:41.797Z,2.35
2019-05-10T13:34:45.358Z,2.80
2019-05-10T13:36:48.974Z,2.35
2019-05-10T13:38:52.556Z,2.58
2019-05-10T13:40:56.145Z,2.40
2019-05-10T13:42:59.810Z,2.50
2019-05-10T13:45:03.787Z,2.60
2019-05-10T13:47:07.442Z,2.67
2019-05-10T13:49:11.040Z,2.60
2019-05-10T13:51:14.611Z,2.52
2019-05-10T13:53:21.106Z,2.20
2019-05-10T13:55:23.577Z,2.60
2019-05-10T13:57:27.596Z,2.47
2019-05-10T13:59:31.321Z,2.80
2019-05-10T14:01:34.974Z,2.60
2019-05-10T14:03:45.180Z,3.00
2019-05-10T14:05:44.029Z,3.00
2019-05-10T14:07:52.192Z,3.15
2019-05-10T14:09:53.861Z,3.15
2019-05-10T14:11:58.096Z,2.60
2019-05-10T14:14:02.319Z,2.90
2019-05-10T14:16:06.486Z,2.50
2019-05-10T14:18:10.659Z,2.92
2019-05-10T14:20:30.602Z,2.67
2019-05-10T14:22:20.516Z,2.65
2019-05-10T14:24:24.104Z,2.83
2019-05-10T14:26:27.671Z,2.40
2019-05-10T14:28:31.310Z,2.75
2019-05-10T14:30:34.871Z,2.70
2019-05-10T14:32:38.528Z,2.90
2019-05-10T14:34:44.264Z,3.12
2019-05-10T14:36:47.520Z,9.60
2019-05-10T14:38:53.724Z,3.15
2019-05-10T14:40:56.389Z,2.55
2019-05-10T14:43:01.154Z,3.02
2019-05-10T14:45:05.235Z,2.58
2019-05-10T14:47:11.004Z,2.90
2019-05-10T14:49:14.219Z,2.90
2019-05-10T14:51:17.801Z,3.30
2019-05-10T14:53:25.722Z,3.47
2019-05-10T14:55:28.173Z,3.20
2019-05-10T14:57:32.003Z,3.02
2019-05-10T14:59:35.680Z,3.30
2019-05-10T15:01:43.030Z,3.08
2019-05-10T15:03:47.086Z,2.60
2019-05-10T15:05:55.352Z,2.50
2019-05-10T15:07:55.246Z,8.45
2019-05-10T15:10:00.286Z,2.52
2019-05-10T15:12:04.232Z,2.50
2019-05-10T15:14:07.919Z,2.37
2019-05-10T15:16:13.288Z,2.30
2019-05-10T15:18:17.030Z,2.02
2019-05-10T15:20:20.600Z,2.30
2019-05-10T15:22:24.858Z,2.20
2019-05-10T15:24:28.689Z,2.30
2019-05-10T15:26:37.259Z,2.20
2019-05-10T15:28:40.531Z,2.10
2019-05-10T15:30:45.764Z,2.17
2019-05-10T15:32:48.337Z,1.87
2019-05-10T15:35:05.618Z,2.27
2019-05-10T15:37:02.621Z,2.30
2019-05-10T15:39:02.706Z,2.42
2019-05-10T15:41:06.367Z,2.08
2019-05-10T15:43:16.387Z,2.20
2019-05-10T15:45:19.221Z,2.00
2019-05-10T15:47:22.386Z,2.30
2019-05-10T15:49:26.336Z,2.08
2019-05-10T15:51:36.439Z,1.85
2019-05-10T15:53:35.327Z,1.90
2019-05-10T15:55:38.923Z,1.98
2019-05-10T15:57:42.512Z,2.20
2019-05-10T15:59:50.839Z,1.60
2019-05-10T16:01:51.569Z,1.95
2019-05-10T16:03:55.263Z,1.82
2019-05-10T16:06:00.659Z,2.17
2019-05-10T16:08:04.225Z,1.98
2019-05-10T16:10:08.117Z,1.95
2019-05-10T16:12:11.705Z,2.02
2019-05-10T16:14:15.256Z,1.75
2019-05-10T16:16:18.894Z,2.25
2019-05-10T16:18:22.539Z,2.20
2019-05-10T16:20:26.140Z,2.30
2019-05-10T16:22:30.713Z,2.45
2019-05-10T16:24:35.203Z,2.00
2019-05-10T16:26:38.857Z,2.50
2019-05-10T16:28:42.569Z,2.27
2019-05-10T16:30:47.172Z,2.33
2019-05-10T16:32:51.078Z,2.70
2019-05-10T16:34:54.703Z,2.72
2019-05-10T16:36:58.262Z,3.25
2019-05-10T16:39:02.174Z,3.55
2019-05-10T16:41:05.940Z,2.58
2019-05-10T16:43:13.441Z,3.02
2019-05-10T16:45:15.194Z,3.25
2019-05-10T16:47:18.848Z,2.77
2019-05-10T16:49:22.506Z,3.00
2019-05-10T16:51:26.275Z,3.17
2019-05-10T16:53:31.471Z,3.33
2019-05-10T16:55:35.586Z,3.10
2019-05-10T16:57:40.544Z,3.52
2019-05-10T16:59:44.125Z,3.35
2019-05-10T17:01:47.716Z,2.98
2019-05-10T17:03:59.625Z,3.20
2019-05-10T17:05:58.829Z,3.45
2019-05-10T17:08:02.046Z,2.95
2019-05-10T17:10:05.751Z,3.40
2019-05-10T17:12:09.419Z,3.40
2019-05-10T17:14:17.814Z,3.72
2019-05-10T17:16:18.915Z,3.02
2019-05-10T17:18:24.193Z,3.72
2019-05-10T17:20:28.063Z,2.92
2019-05-10T17:22:31.690Z,3.15
2019-05-10T17:24:35.534Z,3.27
2019-05-10T17:26:39.131Z,3.08
2019-05-10T17:28:42.718Z,3.37
2019-05-10T17:30:46.485Z,3.22
2019-05-10T17:32:50.055Z,3.70
2019-05-10T17:34:53.659Z,3.58
2019-05-10T17:36:58.479Z,3.40
2019-05-10T17:39:03.206Z,3.00
2019-05-10T17:41:06.846Z,3.47
2019-05-10T17:43:14.361Z,3.35
2019-05-10T17:45:15.736Z,7.70
2019-05-10T17:47:19.409Z,3.65
2019-05-10T17:49:22.980Z,2.98
2019-05-10T17:51:26.635Z,2.92
2019-05-10T17:53:30.336Z,3.05
2019-05-10T17:55:33.993Z,3.17
2019-05-10T17:57:37.592Z,2.92
2019-05-10T17:59:41.214Z,2.85
2019-05-10T18:01:44.953Z,2.80
2019-05-10T18:03:48.631Z,2.83
2019-05-10T18:05:53.450Z,3.10
2019-05-10T18:07:57.347Z,3.10
2019-05-10T18:10:01.116Z,3.05
2019-05-10T18:12:04.766Z,3.00
2019-05-10T18:14:12.574Z,2.52
2019-05-10T18:16:13.760Z,3.00
2019-05-10T18:18:17.346Z,3.30
2019-05-10T18:20:21.008Z,3.27
2019-05-10T18:22:24.968Z,3.10
2019-05-10T18:24:30.007Z,3.22
2019-05-10T18:26:39.066Z,3.37
2019-05-10T18:28:39.282Z,3.17
2019-05-10T18:30:43.105Z,3.02
2019-05-10T18:32:46.760Z,3.27
2019-05-10T18:34:50.369Z,2.98
2019-05-10T18:36:54.069Z,3.20
2019-05-10T18:38:57.690Z,3.35
2019-05-10T18:41:05.244Z,3.42
2019-05-10T18:43:06.805Z,3.33
2019-05-10T18:45:10.524Z,3.98
2019-05-10T18:47:14.152Z,4.28
2019-05-10T18:49:17.830Z,4.50
2019-05-10T18:51:24.360Z,4.42
2019-05-10T18:53:26.858Z,6.17
2019-05-10T18:55:30.511Z,7.30
2019-05-10T18:57:34.124Z,12.30
2019-05-10T18:59:39.746Z,14.70
2019-05-10T19:01:43.211Z,17.65
2019-05-10T19:03:47.680Z,21.97
2019-05-10T19:05:51.332Z,22.05
2019-05-10T19:08:03.233Z,21.77
2019-05-10T19:10:00.289Z,22.32
2019-05-10T19:12:04.062Z,23.47
2019-05-10T19:14:08.088Z,22.05
2019-05-10T19:16:11.814Z,19.70
2019-05-10T19:18:17.754Z,17.05
2019-05-10T19:20:20.794Z,16.37
2019-05-10T19:22:24.409Z,20.32
2019-05-10T19:24:30.291Z,21.45
2019-05-10T19:26:33.366Z,19.45
2019-05-10T19:28:36.972Z,16.65
2019-05-10T19:30:40.574Z,14.55
2019-05-10T19:32:44.321Z,15.00
2019-05-10T19:34:56.935Z,15.23
2019-05-10T19:36:53.369Z,14.47
2019-05-10T19:38:56.991Z,13.72
2019-05-10T19:41:00.583Z,14.20
2019-05-10T19:43:04.306Z,12.80
2019-05-10T19:45:12.948Z,13.13
2019-05-10T19:47:17.793Z,13.32
2019-05-10T19:49:18.930Z,13.22
2019-05-10T19:51:22.896Z,14.38
2019-05-10T19:53:26.780Z,14.23
2019-05-10T19:55:30.479Z,16.80
2019-05-10T19:57:34.153Z,27.85
2019-05-10T19:59:37.806Z,24.37
2019-05-10T20:01:44.949Z,17.52
2019-05-10T20:03:46.893Z,15.63
2019-05-10T20:05:50.526Z,13.83
2019-05-10T20:07:54.174Z,14.05
2019-05-10T20:09:57.824Z,12.75
2019-05-10T20:12:01.503Z,13.28
2019-05-10T20:14:07.457Z,12.73
2019-05-10T20:16:10.483Z,11.30
2019-05-10T20:18:14.132Z,9.98
2019-05-10T20:20:17.814Z,10.80
2019-05-10T20:22:21.403Z,8.95
2019-05-10T20:24:25.059Z,8.40
2019-05-10T20:26:28.681Z,8.48
2019-05-10T20:28:32.310Z,8.70
2019-05-10T20:30:35.946Z,9.05
2019-05-10T20:32:39.541Z,10.30
2019-05-10T20:34:43.231Z,11.57
2019-05-10T20:36:46.885Z,12.00
2019-05-10T20:38:50.538Z,11.33
2019-05-10T20:40:54.270Z,11.48
2019-05-10T20:42:58.050Z,10.72
2019-05-10T20:45:07.605Z,9.75
2019-05-10T20:47:07.329Z,6.83
2019-05-10T20:49:11.020Z,7.05
2019-05-10T20:51:14.590Z,6.10
2019-05-10T20:53:18.273Z,6.35
2019-05-10T20:55:22.054Z,6.00
2019-05-10T20:57:25.703Z,6.08
2019-05-10T20:59:29.455Z,6.58
2019-05-10T21:01:33.407Z,6.42
2019-05-10T21:03:37.046Z,6.00
2019-05-10T21:05:40.703Z,6.67
2019-05-10T21:07:44.411Z,6.55
2019-05-10T21:09:48.132Z,6.33
2019-05-10T21:11:51.801Z,6.12
2019-05-10T21:13:57.888Z,6.30
2019-05-10T21:16:00.842Z,6.53
2019-05-10T21:18:04.566Z,6.60
2019-05-10T21:20:08.400Z,7.03
2019-05-10T21:22:12.012Z,7.67
2019-05-10T21:24:15.753Z,7.58
2019-05-10T21:26:19.380Z,7.05
2019-05-10T21:28:23.022Z,6.97
2019-05-10T21:30:26.741Z,6.80
2019-05-10T21:32:30.475Z,7.83
2019-05-10T21:34:34.227Z,7.55
2019-05-10T21:36:38.009Z,7.70
2019-05-10T21:38:41.950Z,8.10
2019-05-10T21:40:45.827Z,8.35
2019-05-10T21:42:49.558Z,8.25
2019-05-10T21:44:53.256Z,8.33
2019-05-10T21:46:56.888Z,7.72
2019-05-10T21:49:00.546Z,7.87
2019-05-10T21:51:04.168Z,8.10
2019-05-10T21:53:07.893Z,7.92
2019-05-10T21:55:11.592Z,7.72
2019-05-10T21:57:15.306Z,8.00
2019-05-10T21:59:18.939Z,7.97
2019-05-10T22:01:22.885Z,8.23
2019-05-10T22:03:26.606Z,8.43
2019-05-10T22:05:30.223Z,8.48
2019-05-10T22:07:33.911Z,7.75
2019-05-10T22:09:37.568Z,8.40
2019-05-10T22:11:41.210Z,8.45
2019-05-10T22:13:44.931Z,8.15
2019-05-10T22:15:48.666Z,8.28
2019-05-10T22:17:52.376Z,8.13
2019-05-10T22:19:55.995Z,7.72
2019-05-10T22:21:59.690Z,8.55
2019-05-10T22:24:03.344Z,8.25
2019-05-10T22:26:07.119Z,8.03
2019-05-10T22:28:10.850Z,8.28
2019-05-10T22:30:14.765Z,7.80
2019-05-10T22:32:18.386Z,8.65
2019-05-10T22:34:22.017Z,8.65
2019-05-10T22:36:25.720Z,8.80
2019-05-10T22:38:29.504Z,8.58
2019-05-10T22:40:33.148Z,9.05
2019-05-10T22:42:36.878Z,9.25
2019-05-10T22:44:40.488Z,9.30
2019-05-10T22:46:44.127Z,8.85
2019-05-10T22:48:47.830Z,8.95
2019-05-10T22:50:51.570Z,7.97
2019-05-10T22:52:55.206Z,8.18
2019-05-10T22:55:00.548Z,7.78
2019-05-10T22:57:04.341Z,7.80
2019-05-10T22:59:08.046Z,8.33
2019-05-10T23:01:11.742Z,7.97
2019-05-10T23:03:15.423Z,8.55
2019-05-10T23:05:19.076Z,7.37
2019-05-10T23:07:22.702Z,7.37
2019-05-10T23:09:26.351Z,7.22
2019-05-10T23:11:29.989Z,6.70
2019-05-10T23:13:33.639Z,7.72
2019-05-10T23:15:37.262Z,7.58
2019-05-10T23:17:40.965Z,7.62
2019-05-10T23:19:44.632Z,8.08
2019-05-10T23:21:48.261Z,7.78
2019-05-10T23:23:51.974Z,8.10
2019-05-10T23:25:55.679Z,7.42
2019-05-10T23:27:59.362Z,7.28
2019-05-10T23:30:03.145Z,7.40
2019-05-10T23:32:06.952Z,8.20
2019-05-10T23:34:10.617Z,7.72
2019-05-10T23:36:14.292Z,7.28
2019-05-10T23:38:17.934Z,7.22
2019-05-10T23:40:21.556Z,7.30
2019-05-10T23:42:25.183Z,6.97
2019-05-10T23:44:28.822Z,6.85
2019-05-10T23:46:32.461Z,7.33
2019-05-10T23:48:36.099Z,6.87
2019-05-10T23:50:39.746Z,6.87
2019-05-10T23:52:43.350Z,7.20
2019-05-10T23:54:46.988Z,7.35
2019-05-10T23:56:50.619Z,7.60
2019-05-10T23:58:54.319Z,7.80
